Time;durP1;ratioP1;P1;durP2;ratioP2;P2;SDS_P1;SDS_P2;PMS_P1;PMS_P2;Temp;Humidity;BMP_temperature;BMP_pressure;BME280_temperature;BME280_humidity;BME280_pressure;Samples;Min_cycle;Max_cycle;Signal;HPM_P1;HPM_P2
2021/05/02 00:00:34;;;;;;;1.90;1.80;;;6.30;99.90;;;;;;5012905;28;20175;-73
2021/05/02 00:03:02;;;;;;;2.63;2.40;;;6.40;99.90;;;;;;5013125;28;20167;-73
2021/05/02 00:05:30;;;;;;;2.33;2.13;;;6.40;99.90;;;;;;5011546;28;20626;-73
2021/05/02 00:07:57;;;;;;;2.50;2.33;;;6.30;99.90;;;;;;4983050;28;20229;-72
2021/05/02 00:10:25;;;;;;;3.10;2.30;;;6.30;99.90;;;;;;5011953;28;20333;-73
2021/05/02 00:12:51;;;;;;;2.43;2.23;;;6.30;99.90;;;;;;5011763;28;20198;-73
2021/05/02 00:15:21;;;;;;;2.20;2.10;;;6.30;99.90;;;;;;5011832;28;20172;-73
2021/05/02 00:17:49;;;;;;;1.93;1.83;;;6.40;99.90;;;;;;5011640;28;20584;-73
2021/05/02 00:20:18;;;;;;;1.87;1.77;;;6.40;99.90;;;;;;5009848;28;20179;-73
2021/05/02 00:22:46;;;;;;;1.50;1.40;;;6.30;99.90;;;;;;5012819;28;20171;-73
2021/05/02 00:25:14;;;;;;;1.70;1.60;;;6.20;99.90;;;;;;5012357;28;20178;-73
2021/05/02 00:27:41;;;;;;;1.87;1.77;;;6.10;99.90;;;;;;5012600;28;20203;-73
2021/05/02 00:30:08;;;;;;;1.90;1.80;;;6.00;99.90;;;;;;5010769;28;20207;-73
2021/05/02 00:32:35;;;;;;;1.70;1.60;;;6.20;99.90;;;;;;5010963;28;20272;-73
2021/05/02 00:35:02;;;;;;;2.23;2.03;;;6.20;99.90;;;;;;5012001;28;20175;-73
2021/05/02 00:37:28;;;;;;;2.00;1.90;;;6.10;99.90;;;;;;5010460;28;20636;-73
2021/05/02 00:39:55;;;;;;;1.90;1.80;;;6.10;99.90;;;;;;5011935;28;20185;-73
2021/05/02 00:42:25;;;;;;;1.87;1.67;;;6.10;99.90;;;;;;5012011;28;20198;-73
2021/05/02 00:45:07;;;;;;;2.67;2.07;;;6.20;99.90;;;;;;5009981;28;20182;-73
2021/05/02 00:47:35;;;;;;;3.10;2.03;;;6.20;99.90;;;;;;5011949;28;20198;-72
2021/05/02 00:50:16;;;;;;;1.90;1.80;;;6.40;99.90;;;;;;5011799;28;20951;-73
2021/05/02 00:52:48;;;;;;;2.03;1.73;;;6.40;99.90;;;;;;5000005;28;20203;-73
2021/05/02 00:55:20;;;;;;;1.80;1.70;;;6.30;99.90;;;;;;5011636;28;20206;-73
2021/05/02 00:57:55;;;;;;;1.83;1.73;;;6.20;99.90;;;;;;5011651;28;20202;-73
2021/05/02 01:00:22;;;;;;;1.47;1.37;;;6.20;99.90;;;;;;5011497;28;20609;-73
2021/05/02 01:02:56;;;;;;;1.70;1.60;;;6.20;99.90;;;;;;5012581;28;20629;-72
2021/05/02 01:05:22;;;;;;;1.77;1.60;;;6.30;99.90;;;;;;5012725;28;20609;-72
2021/05/02 01:07:54;;;;;;;1.93;1.73;;;6.30;99.90;;;;;;5010203;28;20328;-72
2021/05/02 01:10:20;;;;;;;1.77;1.67;;;6.20;99.90;;;;;;5010118;28;20191;-72
2021/05/02 01:12:52;;;;;;;2.20;2.00;;;6.20;99.90;;;;;;5010130;28;20178;-72
2021/05/02 01:15:24;;;;;;;1.83;1.73;;;6.20;99.90;;;;;;5011484;28;20190;-74
2021/05/02 01:17:56;;;;;;;1.70;1.60;;;6.10;99.90;;;;;;5011223;28;20600;-73
2021/05/02 01:20:21;;;;;;;1.67;1.57;;;6.10;99.90;;;;;;5011453;28;20179;-73
2021/05/02 01:22:51;;;;;;;2.57;1.57;;;5.90;99.90;;;;;;5011201;28;20241;-73
2021/05/02 01:25:19;;;;;;;1.30;1.20;;;6.10;99.90;;;;;;5011350;28;20171;-73
2021/05/02 01:27:49;;;;;;;1.60;1.50;;;6.10;99.90;;;;;;5009885;28;20198;-73
2021/05/02 01:30:16;;;;;;;1.20;1.10;;;6.00;99.90;;;;;;5011514;28;20175;-73
2021/05/02 01:32:41;;;;;;;1.57;1.47;;;6.00;99.90;;;;;;5011287;28;20187;-73
2021/05/02 01:35:07;;;;;;;1.70;1.60;;;6.00;99.90;;;;;;5011178;28;20637;-72
2021/05/02 01:37:33;;;;;;;1.27;1.17;;;6.10;99.90;;;;;;5008755;28;20633;-73
2021/05/02 01:40:00;;;;;;;1.30;1.20;;;6.20;99.90;;;;;;5004685;28;20258;-73
2021/05/02 01:42:26;;;;;;;1.40;1.30;;;6.20;99.90;;;;;;5008466;28;20175;-73
2021/05/02 01:44:52;;;;;;;1.67;1.13;;;6.10;99.90;;;;;;5008242;28;20266;-73
2021/05/02 01:47:19;;;;;;;1.50;1.40;;;6.10;99.90;;;;;;5010159;28;20203;-72
2021/05/02 01:49:59;;;;;;;1.50;1.40;;;6.00;99.90;;;;;;5011001;28;20178;-73
2021/05/02 01:52:27;;;;;;;1.43;1.30;;;6.00;99.90;;;;;;5011295;28;20175;-73
2021/05/02 01:54:54;;;;;;;1.20;1.20;;;6.10;99.90;;;;;;5011026;28;20171;-73
2021/05/02 01:57:28;;;;;;;2.07;1.10;;;6.00;99.90;;;;;;5012959;28;20202;-72
2021/05/02 01:59:58;;;;;;;1.13;1.00;;;6.00;99.90;;;;;;5014834;28;20179;-72
2021/05/02 02:02:25;;;;;;;1.07;1.07;;;5.90;99.90;;;;;;5049455;23;20220;-72
2021/05/02 02:04:55;;;;;;;1.13;1.13;;;5.90;99.90;;;;;;5052571;28;20189;-72
2021/05/02 02:07:21;;;;;;;1.13;1.13;;;5.90;99.90;;;;;;5054217;28;20235;-73
2021/05/02 02:09:47;;;;;;;1.07;1.07;;;5.90;99.90;;;;;;5054974;28;20556;-73
2021/05/02 02:12:13;;;;;;;1.47;1.37;;;6.00;99.90;;;;;;5054477;28;20185;-72
2021/05/02 02:14:40;;;;;;;1.17;1.17;;;6.00;99.90;;;;;;5053111;28;20185;-73
2021/05/02 02:17:08;;;;;;;1.37;1.30;;;5.90;99.90;;;;;;5054070;28;20264;-73
2021/05/02 02:19:38;;;;;;;1.53;1.43;;;6.00;99.90;;;;;;5054405;28;20173;-73
2021/05/02 02:22:06;;;;;;;1.60;1.50;;;5.90;99.90;;;;;;5041891;28;20225;-73
2021/05/02 02:24:45;;;;;;;1.60;1.50;;;5.90;99.90;;;;;;5047700;28;20166;-73
2021/05/02 02:27:13;;;;;;;1.67;1.57;;;5.90;99.90;;;;;;5041393;28;20662;-73
2021/05/02 02:29:43;;;;;;;2.00;1.90;;;5.90;99.90;;;;;;5054330;28;20242;-73
2021/05/02 02:32:14;;;;;;;1.80;1.70;;;5.80;99.90;;;;;;5054005;28;20205;-72
2021/05/02 02:34:46;;;;;;;1.70;1.60;;;5.90;99.90;;;;;;5054314;28;20228;-73
2021/05/02 02:37:17;;;;;;;1.70;1.60;;;5.80;99.90;;;;;;5053103;28;20185;-73
2021/05/02 02:40:00;;;;;;;1.53;1.43;;;5.90;99.90;;;;;;5055359;28;20169;-73
2021/05/02 02:42:27;;;;;;;1.70;1.60;;;6.00;99.90;;;;;;5054816;28;20312;-73
2021/05/02 02:45:04;;;;;;;1.50;1.40;;;6.10;99.90;;;;;;5053493;28;20582;-74
2021/05/02 02:47:34;;;;;;;1.23;1.13;;;6.00;99.90;;;;;;5038669;28;20180;-73
2021/05/02 02:50:01;;;;;;;1.53;1.43;;;6.10;99.90;;;;;;5053988;28;20209;-73
2021/05/02 02:52:28;;;;;;;1.60;1.50;;;6.00;99.90;;;;;;5053696;28;20200;-73
2021/05/02 02:55:06;;;;;;;1.77;1.67;;;5.90;99.90;;;;;;5046868;28;20186;-73
2021/05/02 02:57:38;;;;;;;1.87;1.77;;;5.90;99.90;;;;;;5051687;28;20213;-73
2021/05/02 03:00:05;;;;;;;2.10;2.00;;;5.90;99.90;;;;;;5053816;28;20177;-73
2021/05/02 03:02:31;;;;;;;2.07;1.97;;;5.90;99.90;;;;;;5053534;28;20685;-73
2021/05/02 03:04:59;;;;;;;2.33;2.23;;;5.90;99.90;;;;;;5053651;28;20189;-73
2021/05/02 03:07:25;;;;;;;2.23;2.03;;;5.90;99.90;;;;;;5053646;28;20188;-73
2021/05/02 03:09:52;;;;;;;3.33;3.13;;;5.90;99.90;;;;;;5053205;28;20173;-73
2021/05/02 03:12:20;;;;;;;2.67;2.47;;;5.90;99.90;;;;;;5053513;28;20359;-73
2021/05/02 03:14:50;;;;;;;3.13;2.93;;;5.90;99.90;;;;;;5054305;28;20194;-73
2021/05/02 03:17:22;;;;;;;3.57;3.33;;;6.00;99.90;;;;;;5053483;28;20224;-73
2021/05/02 03:19:58;;;;;;;3.80;3.50;;;6.00;99.90;;;;;;5052177;28;20557;-73
2021/05/02 03:22:52;;;;;;;3.50;3.30;;;6.00;99.90;;;;;;5053520;28;20274;-73
2021/05/02 03:25:26;;;;;;;5.40;5.00;;;6.00;99.90;;;;;;5052003;28;20215;-73
2021/05/02 03:28:01;;;;;;;5.73;5.13;;;6.00;99.90;;;;;;5053331;28;20264;-73
2021/05/02 03:30:28;;;;;;;5.67;5.17;;;6.00;99.90;;;;;;5053582;28;20194;-73
2021/05/02 03:33:02;;;;;;;5.50;5.10;;;6.00;99.90;;;;;;5053310;28;20213;-73
2021/05/02 03:35:36;;;;;;;5.50;5.10;;;6.20;99.90;;;;;;5053586;28;20314;-73
2021/05/02 03:38:11;;;;;;;6.53;5.93;;;6.20;99.90;;;;;;5053729;28;20186;-73
2021/05/02 03:40:37;;;;;;;6.53;5.93;;;6.20;99.90;;;;;;5040730;28;20178;-73
2021/05/02 03:43:07;;;;;;;7.27;6.57;;;6.20;99.90;;;;;;5054480;28;20198;-73
2021/05/02 03:45:33;;;;;;;7.00;6.40;;;6.20;99.90;;;;;;5054227;28;20551;-73
2021/05/02 03:47:59;;;;;;;7.17;6.57;;;6.20;99.90;;;;;;5052438;28;20178;-73
2021/05/02 03:50:25;;;;;;;7.50;6.33;;;6.20;99.90;;;;;;5053743;28;20193;-74
2021/05/02 03:52:51;;;;;;;5.30;4.90;;;6.30;99.90;;;;;;5053987;28;20205;-73
2021/05/02 03:55:17;;;;;;;5.17;4.77;;;6.20;99.90;;;;;;5045850;28;20209;-73
2021/05/02 03:57:42;;;;;;;4.90;4.47;;;6.10;99.90;;;;;;5052574;28;20213;-73
2021/05/02 04:00:09;;;;;;;4.03;3.73;;;6.20;99.90;;;;;;5050911;28;20181;-73
2021/05/02 04:02:35;;;;;;;4.13;3.83;;;6.20;99.90;;;;;;5038553;28;20221;-72
2021/05/02 04:05:00;;;;;;;4.53;4.13;;;6.30;99.90;;;;;;5038950;28;20205;-73
2021/05/02 04:07:26;;;;;;;4.00;3.70;;;6.30;99.90;;;;;;5049738;28;20194;-73
2021/05/02 04:09:52;;;;;;;3.97;3.67;;;6.40;99.90;;;;;;5050330;28;20216;-73
2021/05/02 04:12:17;;;;;;;3.67;3.37;;;6.30;99.90;;;;;;5051250;28;20214;-73
2021/05/02 04:14:43;;;;;;;3.37;3.17;;;6.30;99.90;;;;;;5051608;28;20182;-73
2021/05/02 04:17:12;;;;;;;2.90;2.70;;;6.30;99.90;;;;;;5051752;28;20186;-73
2021/05/02 04:19:40;;;;;;;2.80;2.60;;;6.20;99.90;;;;;;5052769;28;20243;-73
2021/05/02 04:22:06;;;;;;;3.93;3.53;;;6.10;99.90;;;;;;5053041;28;20190;-73
2021/05/02 04:24:33;;;;;;;3.13;2.93;;;6.10;99.90;;;;;;5051732;28;20186;-73
2021/05/02 04:27:00;;;;;;;3.97;3.67;;;6.00;99.90;;;;;;5052008;28;20588;-73
2021/05/02 04:29:27;;;;;;;4.10;3.70;;;6.10;99.90;;;;;;5051602;28;20228;-73
2021/05/02 04:31:53;;;;;;;4.77;4.37;;;6.00;99.90;;;;;;5051525;28;20173;-73
2021/05/02 04:34:19;;;;;;;4.23;3.87;;;6.00;99.90;;;;;;5052053;28;20197;-73
2021/05/02 04:36:47;;;;;;;4.57;4.17;;;6.20;99.90;;;;;;5051489;28;20631;-73
2021/05/02 04:39:13;;;;;;;5.13;4.73;;;6.30;99.90;;;;;;5051471;28;20209;-73
2021/05/02 04:41:38;;;;;;;4.60;4.20;;;6.40;99.90;;;;;;5049728;28;20612;-73
2021/05/02 04:44:04;;;;;;;4.97;4.57;;;6.40;99.90;;;;;;5051578;28;20315;-73
2021/05/02 04:46:30;;;;;;;4.63;4.30;;;6.50;99.90;;;;;;5052294;28;20178;-73
2021/05/02 04:48:56;;;;;;;4.53;4.13;;;6.50;99.90;;;;;;5051164;28;20181;-73
2021/05/02 04:51:22;;;;;;;5.23;4.83;;;6.60;99.90;;;;;;5051475;28;20178;-73
2021/05/02 04:53:49;;;;;;;5.13;4.73;;;6.50;99.90;;;;;;5050771;28;20696;-73
2021/05/02 04:56:15;;;;;;;5.33;4.93;;;6.60;99.90;;;;;;5051377;28;20173;-73
2021/05/02 04:58:44;;;;;;;6.20;5.60;;;6.60;99.90;;;;;;5052140;28;20204;-73
2021/05/02 05:01:13;;;;;;;7.00;6.40;;;6.60;99.90;;;;;;5052674;28;20181;-73
2021/05/02 05:03:43;;;;;;;7.27;6.70;;;6.60;99.90;;;;;;5043451;28;20236;-73
2021/05/02 05:06:09;;;;;;;7.37;6.70;;;6.60;99.90;;;;;;5041480;28;20174;-73
2021/05/02 05:08:35;;;;;;;8.20;7.50;;;6.70;99.90;;;;;;5053261;28;20182;-73
2021/05/02 05:11:01;;;;;;;8.77;8.07;;;6.80;99.90;;;;;;5053263;28;20672;-73
2021/05/02 05:13:27;;;;;;;9.80;9.00;;;6.70;99.90;;;;;;5041238;28;20698;-73
2021/05/02 05:16:00;;;;;;;8.33;7.63;;;6.60;99.90;;;;;;5049937;28;20196;-73
2021/05/02 05:18:26;;;;;;;10.00;9.10;;;6.60;99.90;;;;;;5053503;28;20276;-73
2021/05/02 05:20:54;;;;;;;10.17;9.17;;;6.50;99.90;;;;;;5053109;28;20202;-73
2021/05/02 05:23:19;;;;;;;9.30;8.50;;;6.40;99.90;;;;;;5052969;28;20194;-73
2021/05/02 05:25:45;;;;;;;9.47;8.57;;;6.40;99.90;;;;;;5053389;28;20533;-73
2021/05/02 05:28:11;;;;;;;8.90;8.13;;;6.30;99.90;;;;;;5052999;28;20174;-73
2021/05/02 05:30:37;;;;;;;10.17;8.80;;;6.30;99.90;;;;;;5052502;28;20725;-73
2021/05/02 05:33:04;;;;;;;9.63;8.53;;;6.40;99.90;;;;;;5052028;28;20280;-73
2021/05/02 05:35:30;;;;;;;10.17;9.27;;;6.40;99.90;;;;;;5052990;28;20193;-73
2021/05/02 05:37:56;;;;;;;9.97;9.07;;;6.60;99.90;;;;;;5052979;28;20562;-72
2021/05/02 05:40:22;;;;;;;11.00;10.00;;;6.60;99.90;;;;;;5052656;28;20178;-73
2021/05/02 05:42:48;;;;;;;10.97;9.97;;;6.70;99.90;;;;;;5049207;28;20210;-72
2021/05/02 05:45:14;;;;;;;10.17;9.27;;;6.80;99.90;;;;;;5052271;28;20227;-73
2021/05/02 05:47:39;;;;;;;9.93;9.10;;;6.70;99.90;;;;;;5049578;28;20178;-73
2021/05/02 05:50:13;;;;;;;10.67;9.60;;;6.80;99.90;;;;;;5034698;28;20186;-73
2021/05/02 05:52:39;;;;;;;9.97;9.10;;;6.80;99.90;;;;;;5047483;28;20236;-73
2021/05/02 05:55:05;;;;;;;11.10;10.10;;;6.90;99.90;;;;;;5049479;28;20203;-72
2021/05/02 05:57:31;;;;;;;9.97;9.07;;;6.90;99.90;;;;;;5048479;28;20208;-73
2021/05/02 05:59:57;;;;;;;10.13;9.17;;;6.80;99.90;;;;;;5050652;28;20542;-73
2021/05/02 06:02:23;;;;;;;10.77;9.77;;;6.80;99.90;;;;;;5051089;28;20209;-73
2021/05/02 06:04:49;;;;;;;10.07;9.17;;;6.90;99.90;;;;;;5052452;28;20181;-73
2021/05/02 06:07:15;;;;;;;10.13;9.33;;;6.80;99.90;;;;;;5052764;28;20174;-73
2021/05/02 06:09:41;;;;;;;9.80;9.00;;;6.80;99.90;;;;;;5050421;28;20213;-72
2021/05/02 06:12:07;;;;;;;12.80;9.67;;;6.90;99.90;;;;;;5048075;28;20231;-73
2021/05/02 06:14:34;;;;;;;8.87;8.10;;;6.90;99.90;;;;;;5049996;28;20642;-73
2021/05/02 06:17:00;;;;;;;9.50;8.73;;;6.90;99.90;;;;;;5032041;28;20636;-73
2021/05/02 06:19:27;;;;;;;10.40;9.47;;;6.80;99.90;;;;;;5051606;28;20259;-73
2021/05/02 06:21:55;;;;;;;10.40;9.50;;;6.70;99.90;;;;;;5052686;28;20184;-73
2021/05/02 06:24:21;;;;;;;10.83;9.90;;;6.70;99.90;;;;;;5052590;28;20609;-73
2021/05/02 06:26:46;;;;;;;11.90;10.90;;;6.70;99.90;;;;;;5046311;28;20255;-73
2021/05/02 06:29:12;;;;;;;12.37;11.27;;;6.90;99.90;;;;;;5049249;28;20185;-73
2021/05/02 06:31:40;;;;;;;11.77;10.73;;;6.70;99.90;;;;;;5052158;28;20181;-73
2021/05/02 06:34:06;;;;;;;12.00;11.00;;;6.70;99.90;;;;;;5052696;28;20265;-73
2021/05/02 06:36:32;;;;;;;12.60;11.40;;;6.80;99.90;;;;;;5049080;28;20259;-73
2021/05/02 06:38:57;;;;;;;12.43;11.33;;;6.90;99.90;;;;;;5050445;28;20684;-73
2021/05/02 06:41:23;;;;;;;12.90;11.60;;;7.00;99.90;;;;;;5040130;28;20178;-73
2021/05/02 06:43:49;;;;;;;12.87;11.77;;;6.90;99.90;;;;;;5048940;28;20628;-73
2021/05/02 06:46:28;;;;;;;12.10;11.03;;;6.80;99.90;;;;;;5054203;28;20181;-73
2021/05/02 06:48:55;;;;;;;10.83;9.93;;;6.70;99.90;;;;;;5049554;28;20174;-73
2021/05/02 06:51:21;;;;;;;11.60;10.60;;;6.80;99.90;;;;;;5053214;28;20210;-73
2021/05/02 06:53:47;;;;;;;13.77;12.47;;;7.00;99.90;;;;;;5054203;28;20639;-73
2021/05/02 06:56:13;;;;;;;11.63;10.63;;;7.10;99.90;;;;;;5055484;28;20213;-73
2021/05/02 06:58:38;;;;;;;13.27;11.93;;;7.10;99.90;;;;;;5055533;28;20207;-73
2021/05/02 07:01:04;;;;;;;12.47;11.40;;;7.10;99.90;;;;;;5055903;28;20168;-72
2021/05/02 07:03:30;;;;;;;11.57;10.47;;;7.20;99.90;;;;;;5055175;28;20215;-73
2021/05/02 07:05:58;;;;;;;12.70;11.60;;;7.20;99.90;;;;;;5055453;28;20167;-73
2021/05/02 07:08:24;;;;;;;13.40;12.10;;;7.30;99.90;;;;;;5055264;28;20174;-73
2021/05/02 07:10:51;;;;;;;11.97;10.87;;;7.30;99.90;;;;;;5046680;28;20181;-73
2021/05/02 07:13:18;;;;;;;12.93;11.77;;;7.30;99.90;;;;;;5052193;28;20206;-73
2021/05/02 07:15:45;;;;;;;13.60;12.37;;;7.40;99.90;;;;;;5040685;28;20174;-73
2021/05/02 07:18:11;;;;;;;11.40;10.23;;;7.40;99.90;;;;;;5049701;28;20335;-73
2021/05/02 07:20:37;;;;;;;11.43;10.43;;;7.40;99.90;;;;;;5045962;28;20175;-73
2021/05/02 07:23:03;;;;;;;12.33;11.23;;;7.20;99.90;;;;;;5052406;28;20197;-73
2021/05/02 07:31:25;;;;;;;12.63;11.57;;;7.50;99.90;;;;;;5047346;28;20240;-73
2021/05/02 07:33:52;;;;;;;11.60;10.63;;;7.50;99.90;;;;;;5044017;28;20209;-72
2021/05/02 07:36:18;;;;;;;9.97;9.17;;;7.40;99.90;;;;;;5051774;28;20166;-71
2021/05/02 07:38:44;;;;;;;8.67;7.97;;;7.50;99.90;;;;;;5049581;28;20209;-72
2021/05/02 07:41:12;;;;;;;9.80;9.00;;;7.60;99.90;;;;;;5044468;28;20173;-77
2021/05/02 07:43:40;;;;;;;9.97;9.17;;;7.60;99.90;;;;;;5070595;23;20230;-73
2021/05/02 07:46:06;;;;;;;10.27;9.37;;;7.70;99.90;;;;;;5051853;28;20186;-74
2021/05/02 07:48:31;;;;;;;11.60;10.50;;;7.60;99.90;;;;;;5054047;28;20174;-74
2021/05/02 07:50:57;;;;;;;10.40;9.50;;;7.70;99.90;;;;;;5056383;28;20269;-73
2021/05/02 07:53:24;;;;;;;10.00;9.10;;;7.70;99.90;;;;;;5056341;28;20197;-74
2021/05/02 07:55:49;;;;;;;10.70;9.80;;;7.80;99.90;;;;;;5054740;28;20178;-73
2021/05/02 07:58:15;;;;;;;11.00;10.10;;;7.70;99.90;;;;;;5053974;28;20254;-72
2021/05/02 08:00:41;;;;;;;11.80;10.80;;;7.50;99.90;;;;;;5055684;28;20185;-73
2021/05/02 08:03:07;;;;;;;10.23;9.33;;;7.60;99.90;;;;;;5055029;28;20193;-72
2021/05/02 08:05:33;;;;;;;10.63;9.73;;;7.40;99.90;;;;;;5053970;28;20173;-72
2021/05/02 08:07:59;;;;;;;11.30;10.30;;;7.50;99.90;;;;;;5055175;28;20177;-72
2021/05/02 08:10:25;;;;;;;11.00;10.00;;;7.40;99.90;;;;;;5053816;28;20174;-72
2021/05/02 08:12:55;;;;;;;10.83;9.90;;;7.40;99.90;;;;;;5054161;28;20219;-73
2021/05/02 08:15:21;;;;;;;10.70;9.80;;;7.60;99.90;;;;;;5054039;28;20189;-73
2021/05/02 08:17:47;;;;;;;11.00;10.10;;;7.60;99.90;;;;;;5055426;28;20194;-72
2021/05/02 08:20:13;;;;;;;12.07;10.97;;;7.80;99.90;;;;;;5055189;28;20252;-73
2021/05/02 08:22:39;;;;;;;10.33;9.43;;;8.00;99.90;;;;;;5055635;28;20620;-72
2021/05/02 08:25:06;;;;;;;11.67;10.67;;;7.90;99.90;;;;;;5054700;28;20208;-73
2021/05/02 08:27:32;;;;;;;11.80;10.70;;;7.90;99.90;;;;;;5055052;28;20178;-72
2021/05/02 08:29:58;;;;;;;13.17;12.07;;;8.10;99.90;;;;;;5054572;28;20177;-72
2021/05/02 08:32:24;;;;;;;11.97;11.00;;;8.20;99.90;;;;;;5054745;28;20245;-72
2021/05/02 08:34:50;;;;;;;12.40;11.40;;;8.20;99.90;;;;;;5054832;28;20285;-73
2021/05/02 08:37:15;;;;;;;12.33;11.23;;;8.30;99.90;;;;;;5054322;28;20249;-72
2021/05/02 08:39:41;;;;;;;11.90;10.90;;;8.40;99.90;;;;;;5054766;28;20329;-71
2021/05/02 08:42:07;;;;;;;10.30;9.50;;;8.30;99.90;;;;;;5054211;28;20176;-73
2021/05/02 08:44:34;;;;;;;10.97;9.87;;;8.20;99.90;;;;;;5054164;28;20564;-72
2021/05/02 08:47:00;;;;;;;11.70;10.73;;;8.10;99.90;;;;;;5053675;28;20169;-72
2021/05/02 08:49:26;;;;;;;12.10;10.97;;;8.00;99.90;;;;;;5053699;28;20178;-73
2021/05/02 08:51:51;;;;;;;11.70;10.80;;;8.10;99.90;;;;;;5054197;28;20188;-72
2021/05/02 08:54:18;;;;;;;12.20;11.20;;;8.20;99.90;;;;;;5052316;28;20225;-72
2021/05/02 08:56:44;;;;;;;12.20;11.20;;;8.40;99.90;;;;;;5052264;28;20202;-71
2021/05/02 08:59:10;;;;;;;12.63;11.43;;;8.50;99.90;;;;;;5053441;28;20699;-73
2021/05/02 09:01:36;;;;;;;11.93;10.93;;;8.40;99.90;;;;;;5053529;28;20521;-72
2021/05/02 09:04:06;;;;;;;11.97;10.97;;;8.30;99.90;;;;;;5053580;28;20203;-73
2021/05/02 09:06:33;;;;;;;12.10;11.20;;;8.40;99.90;;;;;;5052742;28;20224;-73
2021/05/02 09:09:11;;;;;;;11.50;10.40;;;8.30;99.90;;;;;;5052093;28;20184;-73
2021/05/02 09:11:45;;;;;;;12.10;11.13;;;8.40;99.90;;;;;;5053348;28;20192;-73
2021/05/02 09:14:17;;;;;;;13.57;12.37;;;8.50;99.90;;;;;;5053613;28;20194;-72
2021/05/02 09:16:57;;;;;;;12.70;11.60;;;8.60;99.90;;;;;;5053351;28;20174;-73
2021/05/02 09:19:26;;;;;;;12.37;11.33;;;8.70;99.90;;;;;;5051872;28;20681;-73
2021/05/02 09:21:52;;;;;;;12.73;11.67;;;8.40;99.90;;;;;;5053416;28;20197;-73
2021/05/02 09:24:33;;;;;;;11.83;10.93;;;8.40;99.90;;;;;;5052663;28;20191;-73
2021/05/02 09:27:15;;;;;;;12.40;11.20;;;8.50;99.90;;;;;;5051925;28;20169;-73
2021/05/02 09:29:46;;;;;;;13.53;12.43;;;8.50;99.90;;;;;;5051920;28;20170;-73
2021/05/02 09:32:13;;;;;;;13.00;11.90;;;8.50;99.90;;;;;;5051891;28;20224;-73
2021/05/02 09:34:50;;;;;;;14.23;12.80;;;8.60;99.90;;;;;;5051411;28;20616;-73
2021/05/02 09:37:16;;;;;;;13.60;12.50;;;8.70;99.90;;;;;;5039687;28;20162;-73
2021/05/02 09:39:53;;;;;;;14.10;12.90;;;8.70;99.90;;;;;;5053192;28;20256;-73
2021/05/02 09:42:35;;;;;;;13.00;11.90;;;8.60;99.90;;;;;;5053024;28;20683;-73
2021/05/02 09:45:03;;;;;;;13.83;12.63;;;8.70;99.90;;;;;;5051332;28;20211;-74
2021/05/02 09:47:39;;;;;;;12.60;11.30;;;8.80;99.90;;;;;;5052787;28;20180;-73
2021/05/02 09:50:06;;;;;;;12.50;11.50;;;8.90;99.90;;;;;;5051753;28;20173;-74
2021/05/02 09:53:02;;;;;;;15.07;13.50;;;8.90;99.90;;;;;;5053051;28;20378;-74
2021/05/02 09:55:30;;;;;;;14.10;12.80;;;9.10;99.90;;;;;;5053523;28;20249;-72
2021/05/02 09:58:03;;;;;;;12.77;11.67;;;9.10;99.90;;;;;;5052964;28;20192;-74
2021/05/02 10:00:41;;;;;;;13.03;12.00;;;9.10;99.90;;;;;;5053362;28;20172;-72
2021/05/02 10:03:10;;;;;;;14.27;12.93;;;9.20;99.90;;;;;;5053136;28;20196;-74
2021/05/02 10:05:50;;;;;;;14.30;12.80;;;9.30;99.90;;;;;;5051979;28;20201;-73
2021/05/02 10:08:17;;;;;;;14.13;12.83;;;9.50;99.90;;;;;;5053603;28;20195;-72
2021/05/02 10:10:44;;;;;;;13.83;12.60;;;9.50;99.90;;;;;;5051804;28;20186;-73
2021/05/02 10:13:11;;;;;;;13.77;12.60;;;9.60;99.90;;;;;;5052473;28;20668;-71
2021/05/02 10:15:37;;;;;;;14.63;13.40;;;9.60;99.90;;;;;;5052425;28;20228;-72
2021/05/02 10:18:04;;;;;;;13.00;12.00;;;9.70;99.90;;;;;;5053640;28;20655;-74
2021/05/02 10:20:30;;;;;;;13.30;12.23;;;9.70;99.90;;;;;;5056334;28;20176;-71
2021/05/02 10:22:56;;;;;;;12.50;11.60;;;9.80;99.90;;;;;;5055878;28;20282;-72
2021/05/02 10:25:22;;;;;;;12.60;11.57;;;9.80;99.90;;;;;;5056100;28;20234;-72
2021/05/02 10:27:51;;;;;;;12.90;11.90;;;9.80;99.90;;;;;;5055843;28;20179;-71
2021/05/02 10:30:30;;;;;;;12.53;11.43;;;9.80;99.90;;;;;;5037948;28;20639;-73
2021/05/02 10:33:07;;;;;;;12.53;11.33;;;9.80;99.90;;;;;;5055769;28;20202;-73
2021/05/02 10:35:53;;;;;;;11.97;11.07;;;9.80;99.90;;;;;;5056299;28;20247;-73
2021/05/02 10:38:42;;;;;;;12.93;11.73;;;9.90;99.90;;;;;;5056135;28;20269;-73
2021/05/02 10:41:37;;;;;;;11.90;11.00;;;10.00;99.90;;;;;;5055162;28;20176;-73
2021/05/02 10:44:12;;;;;;;11.37;10.53;;;10.10;99.90;;;;;;5050968;28;20227;-73
2021/05/02 10:46:44;;;;;;;11.60;10.70;;;10.00;99.90;;;;;;5053111;28;20259;-72
2021/05/02 10:49:31;;;;;;;11.80;10.60;;;10.10;99.90;;;;;;5055457;28;20178;-73
2021/05/02 10:52:17;;;;;;;11.40;10.50;;;10.10;99.90;;;;;;5040342;28;20266;-74
2021/05/02 10:54:44;;;;;;;11.27;10.07;;;10.10;99.90;;;;;;5053133;28;20595;-71
2021/05/02 10:57:33;;;;;;;10.83;10.00;;;10.10;99.90;;;;;;5051313;28;20661;-73
2021/05/02 11:15:31;;;;;;;9.50;8.73;;;10.70;99.90;;;;;;5246680;23;20311;-74
2021/05/02 11:17:57;;;;;;;8.90;8.20;;;10.50;99.90;;;;;;5066909;28;20213;-77
2021/05/02 11:20:44;;;;;;;9.87;9.17;;;10.50;99.90;;;;;;5067768;28;20175;-76
2021/05/02 11:23:10;;;;;;;9.27;8.47;;;10.50;99.90;;;;;;5073072;28;20174;-76
2021/05/02 11:25:40;;;;;;;8.50;7.80;;;10.60;99.90;;;;;;5073961;28;21329;-78
2021/05/02 11:30:49;;;;;;;8.67;8.07;;;10.50;99.90;;;;;;5056454;22;20230;-76
2021/05/02 11:33:24;;;;;;;8.70;8.10;;;10.30;99.90;;;;;;5033380;28;20171;-75
2021/05/02 11:35:53;;;;;;;7.97;7.37;;;10.30;99.90;;;;;;5034670;28;20645;-76
2021/05/02 11:38:21;;;;;;;8.00;7.40;;;10.10;99.90;;;;;;5034860;28;20202;-76
2021/05/02 11:40:56;;;;;;;8.57;7.90;;;10.00;99.90;;;;;;5034868;28;20551;-76
2021/05/02 11:43:25;;;;;;;8.20;7.60;;;9.80;99.90;;;;;;5040135;28;20174;-74
2021/05/02 11:45:58;;;;;;;8.63;7.93;;;9.60;99.90;;;;;;5039161;28;20178;-76
2021/05/02 11:48:30;;;;;;;8.80;8.10;;;9.40;99.90;;;;;;5041200;28;20668;-76
2021/05/02 11:51:07;;;;;;;9.20;8.40;;;9.50;99.90;;;;;;5049769;28;20185;-76
2021/05/02 11:53:33;;;;;;;9.03;8.33;;;9.60;99.90;;;;;;5036685;28;20179;-80
2021/05/02 11:55:59;;;;;;;8.13;7.53;;;9.70;99.90;;;;;;5041184;28;20263;-78
2021/05/02 11:58:28;;;;;;;7.83;7.23;;;9.70;99.90;;;;;;5036638;28;20192;-77
2021/05/02 12:00:54;;;;;;;9.57;8.87;;;9.70;99.90;;;;;;5041189;28;20539;-78
2021/05/02 12:03:39;;;;;;;10.80;9.90;;;9.90;99.90;;;;;;5040448;28;20206;-77
2021/05/02 12:06:07;;;;;;;9.07;8.37;;;10.10;99.90;;;;;;5035314;28;20189;-74
2021/05/02 12:08:34;;;;;;;10.03;9.13;;;10.40;99.90;;;;;;5037594;28;20188;-77
2021/05/02 12:11:05;;;;;;;9.10;8.50;;;10.40;99.90;;;;;;5045577;28;20515;-75
2021/05/02 12:13:39;;;;;;;14.93;13.57;;;10.50;99.90;;;;;;5045645;28;20188;-76
2021/05/02 12:16:13;;;;;;;8.97;8.23;;;10.60;99.90;;;;;;5028651;28;20257;-75
2021/05/02 12:19:00;;;;;;;8.80;8.10;;;10.80;99.90;;;;;;5038133;28;20206;-74
2021/05/02 12:21:29;;;;;;;8.57;7.97;;;10.80;99.90;;;;;;5031149;28;20197;-76
2021/05/02 12:24:10;;;;;;;8.27;7.57;;;10.90;99.90;;;;;;5028019;28;20176;-75
2021/05/02 12:26:43;;;;;;;8.37;7.67;;;11.10;99.90;;;;;;5033518;28;20196;-76
2021/05/02 12:29:12;;;;;;;7.47;6.87;;;11.20;99.90;;;;;;5034024;28;20235;-75
2021/05/02 12:31:38;;;;;;;6.90;6.20;;;11.30;99.90;;;;;;5035994;28;20187;-76
2021/05/02 12:34:09;;;;;;;6.27;5.77;;;11.60;99.90;;;;;;5037331;28;20173;-75
2021/05/02 12:36:35;;;;;;;6.00;5.50;;;11.80;99.90;;;;;;5046162;28;20185;-75
2021/05/02 12:39:03;;;;;;;5.53;5.03;;;11.80;99.90;;;;;;5043313;28;20248;-75
2021/05/02 12:41:29;;;;;;;5.33;4.93;;;11.70;99.90;;;;;;5037434;28;20174;-75
2021/05/02 12:43:55;;;;;;;6.20;5.70;;;11.50;99.90;;;;;;5036054;28;20237;-74
2021/05/02 12:46:47;;;;;;;6.33;5.83;;;11.50;99.90;;;;;;5038108;28;20264;-73
2021/05/02 12:49:16;;;;;;;6.63;5.97;;;11.60;99.90;;;;;;5039349;28;20211;-74
2021/05/02 12:51:45;;;;;;;5.97;5.57;;;11.60;99.90;;;;;;5034169;28;20189;-76
2021/05/02 12:54:14;;;;;;;5.57;5.17;;;11.60;99.90;;;;;;5036110;28;20182;-77
2021/05/02 12:56:43;;;;;;;6.93;6.43;;;11.50;99.90;;;;;;5038203;28;20181;-74
2021/05/02 12:59:31;;;;;;;6.77;6.17;;;11.60;99.90;;;;;;5032396;28;20270;-73
2021/05/02 13:02:16;;;;;;;6.60;6.07;;;11.60;99.90;;;;;;5024320;28;20267;-74
2021/05/02 13:04:48;;;;;;;8.20;7.50;;;11.40;99.90;;;;;;5032493;28;20170;-74
2021/05/02 13:07:15;;;;;;;6.80;6.30;;;11.40;99.90;;;;;;5033613;28;20177;-74
2021/05/02 13:09:45;;;;;;;7.07;6.57;;;11.40;99.90;;;;;;5033661;28;20202;-74
2021/05/02 13:12:12;;;;;;;7.47;6.73;;;11.30;99.90;;;;;;5034039;28;20185;-74
2021/05/02 13:14:40;;;;;;;11.30;9.67;;;11.00;99.90;;;;;;5019005;28;20188;-75
2021/05/02 13:17:14;;;;;;;9.30;8.40;;;10.80;99.90;;;;;;5040181;28;20171;-76
2021/05/02 13:19:43;;;;;;;9.67;8.73;;;10.60;99.90;;;;;;5030021;28;20199;-73
2021/05/02 13:22:21;;;;;;;10.63;9.60;;;10.20;99.90;;;;;;5033146;28;20248;-74